Terminal Aerodrome Forecast
Issued by NWS Wilmington, OH

Current Version | Previous Version | Graphics & Text | Print | Product List | Glossary On
Versions: 1 2 3 4 5 6 7 8 9 10 11 12 13 14 15
000
FTUS41 KILN 230906 AAA
TAFCMH
TAF AMD
KCMH 230906Z 2309/2406 14007KT P6SM OVC070
     FM231100 14008KT P6SM VCSH OVC050 WS020/17035KT
     FM231700 14009KT 4SM SHRA OVC015
     FM232100 18013G20KT P6SM VCSH OVC050
     FM232300 18013KT 4SM SHRA OVC025=

USA.gov is the U.S. government's official web portal to all federal, state and local government web resources and services.